»·PEaware :: N343GE KLAX-KSAN

N343GE :: KLAX-KSAN

FLIGHT INFORMATION

Flight Status: Arrived
Operator: Privately registered:
United States
More flights under this callsign
Pilot: Hyatt B. (30410)
Aircraft: PIPER PA-28 CHEROKEE ARCHER
(PA28)
More flights by this aircraft type
Origin: KLAX Los Angeles Intl
United States
Destination: KSAN San Diego Intl-Lindbergh
United States
More flights between these airports :: More routes between these airports
Route:
File this flight plan on PilotEdge
Remarks:
Altitude:
(Current/Filed)
5,500ft
Speed:
(Current/Filed)
115kts
Departed: 23-Jul-20 03:19 PM
Arrived: 23-Jul-20 04:20 PM
Distance/Time
Traveled:
95nm/1:01
Distance/Time
To Go:
Arrived

Flight Plot

Page will automatically refresh every two minutes.


Map Options




Map Legend


Flown Route
Filed Route
Departure Airport
Arrival Airport
Navaid (VOR, NDB)
Fix

Horizontal Profiles

Position Reports

Time Latitude Longitude Heading Altitude Ground
Speed
23-Jul-20 15:03 33.933554 -118.397016 285 111ft 0kts
23-Jul-20 15:04 33.933554 -118.397016 285 111ft 0kts
23-Jul-20 15:05 33.933554 -118.397016 285 111ft 0kts
23-Jul-20 15:06 33.933554 -118.397016 285 111ft 0kts
23-Jul-20 15:07 33.933554 -118.397019 286 111ft 0kts
23-Jul-20 15:08 33.933554 -118.397019 286 111ft 0kts
23-Jul-20 15:09 33.933554 -118.397019 286 111ft 0kts
23-Jul-20 15:10 33.933554 -118.397019 286 111ft 0kts
23-Jul-20 15:11 33.933554 -118.397019 286 111ft 0kts
23-Jul-20 15:12 33.933957 -118.397902 285 112ft 4kts
23-Jul-20 15:13 33.934881 -118.395051 83 106ft 16kts
23-Jul-20 15:14 33.935421 -118.389614 82 103ft 14kts
23-Jul-20 15:15 33.935857 -118.385400 84 101ft 13kts
23-Jul-20 15:16 33.936479 -118.382762 6 99ft 0kts
23-Jul-20 15:17 33.937217 -118.384124 263 100ft 12kts
23-Jul-20 15:18 33.934822 -118.405623 261 422ft 81kts
23-Jul-20 15:19 33.931300 -118.432909 261 1080ft 86kts
23-Jul-20 15:20 33.919913 -118.456865 182 1690ft 91kts
23-Jul-20 15:21 33.894787 -118.450972 167 2293ft 93kts
23-Jul-20 15:22 33.867381 -118.444971 164 2483ft 107kts
23-Jul-20 15:23 33.838412 -118.436446 174 2481ft 108kts
23-Jul-20 15:24 33.808545 -118.438229 188 2481ft 108kts
23-Jul-20 15:25 33.779160 -118.445128 192 2525ft 104kts
23-Jul-20 15:26 33.758033 -118.435040 117 2906ft 88kts
23-Jul-20 15:27 33.748832 -118.411486 114 3541ft 74kts
23-Jul-20 15:28 33.740888 -118.388666 112 4237ft 73kts
23-Jul-20 15:29 33.732563 -118.363252 111 4774ft 90kts
23-Jul-20 15:30 33.722984 -118.333146 110 5290ft 101kts
23-Jul-20 15:31 33.712339 -118.299498 110 5538ft 117kts
23-Jul-20 15:32 33.703907 -118.261278 103 5536ft 119kts
23-Jul-20 15:33 33.696136 -118.222538 103 5536ft 119kts
23-Jul-20 15:34 33.688414 -118.183790 103 5536ft 119kts
23-Jul-20 15:35 33.680666 -118.144898 103 5536ft 119kts
23-Jul-20 15:36 33.672933 -118.106130 103 5536ft 119kts
23-Jul-20 15:37 33.665150 -118.067170 103 5536ft 119kts
23-Jul-20 15:38 33.652181 -118.031144 126 5536ft 119kts
23-Jul-20 15:39 33.631851 -117.999578 128 5536ft 119kts
23-Jul-20 15:40 33.610457 -117.969001 132 5536ft 119kts
23-Jul-20 15:41 33.588378 -117.939255 130 5536ft 120kts
23-Jul-20 15:42 33.566695 -117.908945 130 5536ft 120kts
23-Jul-20 15:43 33.544336 -117.879567 156 5535ft 119kts
23-Jul-20 15:44 33.514107 -117.863697 146 5536ft 119kts
23-Jul-20 15:45 33.488031 -117.839223 138 5536ft 120kts
23-Jul-20 15:46 33.463455 -117.812239 136 5536ft 119kts
23-Jul-20 15:47 33.439546 -117.784917 135 5536ft 119kts
23-Jul-20 15:48 33.415810 -117.757526 135 5536ft 118kts
23-Jul-20 15:49 33.392641 -117.730740 135 5536ft 119kts
23-Jul-20 15:50 33.368868 -117.703257 135 5536ft 119kts
23-Jul-20 15:51 33.345575 -117.675063 122 5537ft 119kts
23-Jul-20 15:52 33.328838 -117.640902 119 5536ft 119kts
23-Jul-20 15:53 33.312535 -117.606484 119 5536ft 119kts
23-Jul-20 15:54 33.296274 -117.571941 119 5536ft 119kts
23-Jul-20 15:55 33.280004 -117.537345 118 5511ft 120kts
23-Jul-20 15:56 33.263641 -117.502570 118 5509ft 119kts
23-Jul-20 15:57 33.245025 -117.470224 138 5509ft 119kts
23-Jul-20 15:58 33.219958 -117.444324 139 5509ft 119kts
23-Jul-20 15:59 33.194758 -117.418659 139 5509ft 119kts
23-Jul-20 16:00 33.169487 -117.393089 139 5509ft 119kts
23-Jul-20 16:01 33.144202 -117.367519 139 5509ft 119kts
23-Jul-20 16:02 33.118884 -117.341782 139 5509ft 119kts
23-Jul-20 16:03 33.093711 -117.316040 139 5509ft 119kts
23-Jul-20 16:04 33.064596 -117.299375 168 5509ft 119kts
23-Jul-20 16:05 33.036925 -117.292573 168 5388ft 115kts
23-Jul-20 16:06 33.005063 -117.284801 168 5201ft 113kts
23-Jul-20 16:07 32.974777 -117.277408 168 4889ft 114kts
23-Jul-20 16:08 32.943288 -117.269724 168 4491ft 116kts
23-Jul-20 16:09 32.911485 -117.262544 170 4035ft 115kts
23-Jul-20 16:10 32.881760 -117.256578 170 3512ft 99kts
23-Jul-20 16:11 32.857514 -117.251652 170 3512ft 89kts
23-Jul-20 16:12 32.831400 -117.245651 160 3479ft 102kts
23-Jul-20 16:13 32.803998 -117.233476 159 2961ft 95kts
23-Jul-20 16:14 32.780241 -117.222832 159 2412ft 99kts
23-Jul-20 16:15 32.756508 -117.208829 131 1908ft 85kts
23-Jul-20 16:16 32.746062 -117.183375 110 1463ft 90kts
23-Jul-20 16:17 32.733011 -117.160593 190 908ft 98kts
23-Jul-20 16:18 32.732327 -117.184566 285 17ft 59kts
23-Jul-20 16:19 32.734650 -117.190762 28 18ft 1kts
23-Jul-20 16:20 32.735329 -117.189251 15 19ft 2kts
23-Jul-20 16:21 32.735330 -117.189251 16 19ft 0kts
23-Jul-20 16:22 32.735330 -117.189251 16 19ft 0kts

Navigation Log

Ident Type
Flight plan parsing failed, navigation log unavailable